Time;durP1;ratioP1;P1;durP2;ratioP2;P2;SDS_P1;SDS_P2;PMS_P1;PMS_P2;Temp;Humidity;BMP_temperature;BMP_pressure;BME280_temperature;BME280_humidity;BME280_pressure;Samples;Min_cycle;Max_cycle;Signal;HPM_P1;HPM_P2
2022/04/18 00:01:47;;;;;;;7.63;4.40;;;;;;;3.07;nan;99110.91;4992055;28;20042;-60
2022/04/18 00:04:13;;;;;;;6.70;4.40;;;;;;;2.98;nan;99114.94;4990496;28;20556;-60
2022/04/18 00:06:38;;;;;;;5.33;4.20;;;;;;;2.78;nan;99103.59;4994360;28;20591;-60
2022/04/18 00:09:04;;;;;;;5.63;4.43;;;;;;;2.75;nan;99114.53;4992236;28;20778;-61
2022/04/18 00:11:29;;;;;;;4.50;4.10;;;;;;;2.90;nan;99103.84;4990657;28;20025;-61
2022/04/18 00:13:55;;;;;;;4.03;3.63;;;;;;;2.71;nan;99085.78;4991985;28;20113;-61
2022/04/18 00:16:20;;;;;;;6.00;3.87;;;;;;;2.75;nan;99097.69;4992824;28;20062;-60
2022/04/18 00:18:46;;;;;;;7.83;4.53;;;;;;;2.95;nan;99104.78;4994102;28;20034;-60
2022/04/18 00:21:12;;;;;;;5.03;4.00;;;;;;;2.80;nan;99084.25;4988002;28;20103;-60
2022/04/18 00:23:37;;;;;;;4.80;4.40;;;;;;;2.89;nan;99097.06;4989210;28;20634;-60
2022/04/18 00:26:03;;;;;;;7.83;4.60;;;;;;;2.76;nan;99075.72;4992712;28;20077;-60
2022/04/18 00:28:29;;;;;;;5.57;4.20;;;;;;;2.76;nan;99068.97;4992703;28;20497;-60
2022/04/18 00:30:55;;;;;;;6.73;4.40;;;;;;;2.78;nan;99070.69;4989617;28;20512;-60
2022/04/18 00:33:20;;;;;;;4.20;3.80;;;;;;;2.83;nan;99084.28;4991055;28;20038;-60
2022/04/18 00:35:46;;;;;;;5.23;3.73;;;;;;;2.72;nan;99068.88;4992630;28;20552;-60
2022/04/18 00:38:11;;;;;;;5.50;4.80;;;;;;;2.78;nan;99069.03;4992600;28;20026;-60
2022/04/18 00:40:37;;;;;;;5.20;4.00;;;;;;;2.82;nan;99078.38;4989967;28;20100;-60
2022/04/18 00:43:04;;;;;;;135.87;70.87;;;;;;;2.62;nan;99074.63;4990569;28;20053;-61
2022/04/18 00:45:30;;;;;;;176.20;101.63;;;;;;;2.71;nan;99072.28;4992677;28;20065;-64
2022/04/18 00:47:56;;;;;;;334.50;128.87;;;;;;;2.63;nan;99067.03;4992307;28;20057;-59
2022/04/18 00:50:22;;;;;;;444.33;149.13;;;;;;;2.51;nan;99046.56;4988585;28;20398;-59
2022/04/18 00:52:51;;;;;;;295.57;116.70;;;;;;;2.66;nan;99062.06;4989675;28;20060;-60
2022/04/18 00:55:18;;;;;;;446.77;150.23;;;;;;;2.67;nan;99058.66;4993450;28;20038;-63
2022/04/18 00:57:44;;;;;;;21.67;11.00;;;;;;;2.68;nan;99042.66;4989771;28;20037;-60
2022/04/18 01:00:10;;;;;;;420.43;135.23;;;;;;;2.74;nan;99057.13;4989325;28;20038;-60
2022/04/18 01:02:35;;;;;;;453.03;157.80;;;;;;;2.81;nan;99053.88;4993051;28;20030;-62
2022/04/18 01:05:01;;;;;;;5.27;4.70;;;;;;;2.82;nan;99053.06;4992586;28;20033;-61
2022/04/18 01:07:26;;;;;;;5.37;4.50;;;;;;;2.74;nan;99045.31;4989749;28;20022;-60
2022/04/18 01:09:52;;;;;;;8.03;4.67;;;;;;;2.70;nan;99051.16;4990254;28;20038;-60
2022/04/18 01:12:17;;;;;;;12.10;6.23;;;;;;;2.73;nan;99045.28;4991350;28;20030;-60
2022/04/18 01:14:47;;;;;;;5.53;4.27;;;;;;;2.61;nan;99040.84;4990775;28;20033;-60
2022/04/18 01:17:13;;;;;;;102.00;66.70;;;;;;;2.48;nan;99036.38;4995788;28;20038;-60
2022/04/18 01:19:39;;;;;;;7.00;4.37;;;;;;;2.59;nan;99039.97;4990635;28;20034;-59
2022/04/18 01:22:05;;;;;;;136.60;77.90;;;;;;;2.51;nan;99017.88;4995966;28;20543;-60
2022/04/18 01:30:02;;;;;;;5.20;4.37;;;;;;;2.40;nan;99027.78;4991308;28;20037;-60
2022/04/18 01:32:27;;;;;;;5.60;3.83;;;;;;;2.45;nan;99030.41;4991408;28;20030;-60
2022/04/18 01:34:52;;;;;;;7.00;3.50;;;;;;;2.43;nan;99021.94;4992058;28;20437;-62
2022/04/18 01:37:18;;;;;;;42.57;32.17;;;;;;;2.48;nan;99017.81;4989620;28;20060;-59
2022/04/18 01:39:43;;;;;;;5.90;4.17;;;;;;;2.28;nan;98992.16;4992974;28;20042;-60
2022/04/18 01:42:09;;;;;;;5.50;3.97;;;;;;;2.41;nan;98999.16;4993349;28;20539;-61
2022/04/18 01:44:34;;;;;;;15.83;7.50;;;;;;;2.43;nan;99020.25;4991378;28;20032;-61
2022/04/18 01:46:59;;;;;;;165.83;101.87;;;;;;;2.46;nan;99011.88;4988363;28;20053;-61
2022/04/18 01:49:25;;;;;;;4.37;3.67;;;;;;;2.32;nan;98990.53;4991838;28;20482;-60
2022/04/18 01:51:50;;;;;;;12.20;6.67;;;;;;;2.43;nan;98991.56;4993064;28;20030;-60
2022/04/18 01:54:16;;;;;;;140.33;82.93;;;;;;;2.36;nan;99010.84;4989400;28;20107;-60
2022/04/18 01:56:41;;;;;;;15.53;8.13;;;;;;;2.39;nan;99007.50;4990431;28;20026;-60
2022/04/18 01:59:07;;;;;;;59.53;53.77;;;;;;;2.36;nan;99000.72;4989921;28;20029;-60
2022/04/18 02:01:33;;;;;;;277.27;135.53;;;;;;;2.27;nan;98990.44;4992850;28;20393;-60
2022/04/18 02:03:58;;;;;;;84.07;69.90;;;;;;;2.44;nan;99000.88;4989290;28;20031;-60
2022/04/18 02:06:24;;;;;;;59.00;50.50;;;;;;;2.43;nan;99002.53;4987917;28;20487;-60
2022/04/18 02:08:49;;;;;;;231.33;112.73;;;;;;;2.45;nan;98998.38;4991509;28;20039;-60
2022/04/18 02:11:15;;;;;;;135.70;87.40;;;;;;;2.35;nan;98993.09;4992783;28;20034;-61
2022/04/18 02:13:41;;;;;;;8.60;3.93;;;;;;;2.41;nan;98988.16;4988722;28;20030;-60
2022/04/18 02:16:06;;;;;;;74.83;52.97;;;;;;;2.45;nan;98982.34;4988770;28;20030;-60
2022/04/18 02:18:32;;;;;;;31.07;22.50;;;;;;;2.49;nan;98982.44;4991577;28;20025;-60
2022/04/18 02:20:57;;;;;;;172.60;104.23;;;;;;;2.43;nan;98989.91;4990503;28;20042;-60
2022/04/18 02:23:22;;;;;;;166.33;98.90;;;;;;;2.41;nan;98978.06;4988663;28;20026;-60
2022/04/18 02:25:48;;;;;;;26.67;18.03;;;;;;;2.37;nan;98968.69;4988073;28;20062;-60
2022/04/18 02:28:14;;;;;;;24.00;18.60;;;;;;;2.38;nan;98978.81;4990711;28;20493;-60
2022/04/18 02:30:39;;;;;;;141.80;110.17;;;;;;;2.33;nan;98972.84;4990392;28;20908;-60
2022/04/18 02:33:04;;;;;;;189.57;87.13;;;;;;;2.29;nan;98953.38;4989544;28;20073;-60
2022/04/18 02:35:30;;;;;;;241.83;110.33;;;;;;;2.30;nan;98962.66;4988750;28;20054;-60
2022/04/18 02:37:55;;;;;;;77.03;61.93;;;;;;;2.19;nan;98959.09;4990327;28;20560;-60
2022/04/18 02:40:21;;;;;;;213.20;117.03;;;;;;;2.02;nan;98957.91;4989845;28;20136;-60
2022/04/18 02:42:47;;;;;;;287.07;139.87;;;;;;;1.75;nan;98928.72;4987602;28;20631;-60
2022/04/18 02:45:14;;;;;;;228.03;81.80;;;;;;;1.77;nan;98948.97;4989821;28;20033;-61
2022/04/18 02:47:40;;;;;;;49.67;43.07;;;;;;;1.69;nan;98938.72;4992135;28;20034;-61
2022/04/18 02:50:06;;;;;;;118.40;87.80;;;;;;;1.94;nan;98940.06;4993826;28;20040;-61
2022/04/18 02:52:32;;;;;;;73.73;58.13;;;;;;;2.21;nan;98939.72;4993103;28;20145;-61
2022/04/18 02:54:57;;;;;;;4.27;3.47;;;;;;;2.41;nan;98933.38;4992934;28;20092;-61
2022/04/18 02:57:23;;;;;;;6.10;4.57;;;;;;;2.55;nan;98931.06;4995418;28;20038;-61
2022/04/18 02:59:48;;;;;;;3.53;3.20;;;;;;;2.72;nan;98935.59;4993552;28;20089;-61
2022/04/18 03:02:14;;;;;;;3.50;3.20;;;;;;;2.81;nan;98936.56;4992287;28;20034;-61
2022/04/18 03:04:40;;;;;;;20.77;12.60;;;;;;;2.80;nan;98922.22;4993780;28;20117;-61
2022/04/18 03:07:05;;;;;;;4.30;2.83;;;;;;;2.81;nan;98904.50;4994243;28;20038;-61
2022/04/18 03:09:31;;;;;;;5.83;4.10;;;;;;;2.89;nan;98912.22;4992684;28;20041;-61
2022/04/18 03:11:57;;;;;;;5.33;3.63;;;;;;;2.99;nan;98925.06;4991294;28;20795;-60
2022/04/18 03:14:23;;;;;;;4.40;3.10;;;;;;;2.96;nan;98906.44;4993943;28;20512;-59
2022/04/18 03:16:49;;;;;;;3.90;2.77;;;;;;;3.05;nan;98911.66;4993576;28;20038;-61
2022/04/18 03:19:14;;;;;;;4.20;3.50;;;;;;;3.04;nan;98920.06;4992126;28;20030;-61
2022/04/18 03:21:40;;;;;;;3.97;2.87;;;;;;;3.00;nan;98909.06;4991915;28;20377;-61
2022/04/18 03:24:06;;;;;;;4.00;3.70;;;;;;;2.94;nan;98890.38;4994566;28;20065;-61
2022/04/18 03:26:32;;;;;;;4.63;2.83;;;;;;;3.06;nan;98905.75;4995231;28;20030;-61
2022/04/18 03:28:57;;;;;;;5.20;3.27;;;;;;;3.11;nan;98904.13;4990889;28;20042;-61
2022/04/18 03:31:23;;;;;;;3.03;2.63;;;;;;;3.12;nan;98893.19;4992237;28;20026;-61
2022/04/18 03:33:48;;;;;;;3.07;2.73;;;;;;;3.10;nan;98887.22;4992254;28;20030;-60
2022/04/18 03:41:42;;;;;;;3.33;2.60;;;;;;;3.32;nan;98888.38;4991671;28;20460;-60
2022/04/18 03:44:09;;;;;;;3.77;2.87;;;;;;;3.29;nan;98884.13;4992307;28;20026;-61
2022/04/18 03:46:34;;;;;;;3.57;3.17;;;;;;;3.31;nan;98879.09;4993634;28;20030;-59
2022/04/18 03:49:00;;;;;;;4.23;2.77;;;;;;;3.29;nan;98881.59;4991321;28;20042;-59
2022/04/18 03:51:25;;;;;;;3.10;2.77;;;;;;;3.21;nan;98884.03;4993866;28;20083;-59
2022/04/18 03:53:51;;;;;;;4.97;3.00;;;;;;;3.22;nan;98879.81;4993366;28;20069;-60
2022/04/18 03:56:16;;;;;;;3.40;2.87;;;;;;;3.16;nan;98874.66;4992285;28;20038;-60
2022/04/18 03:58:41;;;;;;;4.97;3.10;;;;;;;3.07;nan;98869.47;4989996;28;20026;-60
2022/04/18 04:01:07;;;;;;;6.40;3.23;;;;;;;3.10;nan;98887.22;4993102;28;20036;-60
2022/04/18 04:03:32;;;;;;;3.47;3.17;;;;;;;2.94;nan;98870.97;4994198;28;20034;-60
2022/04/18 04:05:58;;;;;;;5.07;3.37;;;;;;;2.82;nan;98863.19;4992255;28;20061;-59
2022/04/18 04:08:24;;;;;;;3.97;3.33;;;;;;;2.85;nan;98863.22;4991038;28;20045;-60
2022/04/18 04:10:50;;;;;;;5.63;3.73;;;;;;;2.78;nan;98868.19;4994817;28;20080;-60
2022/04/18 04:13:16;;;;;;;5.53;4.13;;;;;;;2.75;nan;98863.94;4993539;28;20038;-60
2022/04/18 04:15:42;;;;;;;4.17;3.00;;;;;;;2.88;nan;98881.00;4990024;28;20125;-61
2022/04/18 04:18:08;;;;;;;3.27;2.90;;;;;;;2.79;nan;98859.75;4989947;28;20056;-60
2022/04/18 04:20:33;;;;;;;4.07;3.13;;;;;;;2.79;nan;98874.94;4993445;28;21034;-60
2022/04/18 04:22:59;;;;;;;4.40;3.23;;;;;;;2.86;nan;98880.13;4992900;28;20038;-60
2022/04/18 04:25:24;;;;;;;4.63;3.63;;;;;;;2.81;nan;98873.28;4989932;28;20053;-60
2022/04/18 04:27:49;;;;;;;6.43;3.00;;;;;;;2.66;nan;98868.84;4990148;28;20941;-60
2022/04/18 04:30:16;;;;;;;5.00;3.37;;;;;;;2.71;nan;98890.03;4992601;28;20030;-60
2022/04/18 04:32:42;;;;;;;4.60;3.67;;;;;;;2.49;nan;98886.28;4992851;28;20030;-60
2022/04/18 04:35:07;;;;;;;6.83;3.80;;;;;;;2.30;nan;98871.59;4989202;28;20506;-59
2022/04/18 04:37:33;;;;;;;7.70;3.77;;;;;;;2.24;nan;98877.41;4992347;28;20481;-61
2022/04/18 04:39:58;;;;;;;3.57;3.07;;;;;;;2.12;nan;98861.19;4992818;28;20428;-61
2022/04/18 04:42:24;;;;;;;4.03;3.60;;;;;;;2.14;nan;98877.22;4994308;28;20567;-60
2022/04/18 04:44:49;;;;;;;4.03;3.20;;;;;;;2.12;nan;98869.59;4992532;28;20030;-61
2022/04/18 04:47:14;;;;;;;6.00;3.27;;;;;;;2.10;nan;98873.78;4990056;28;20465;-60
2022/04/18 04:49:40;;;;;;;4.83;3.00;;;;;;;2.06;nan;98856.00;4993777;28;20041;-60
2022/04/18 04:52:06;;;;;;;6.90;3.20;;;;;;;2.41;nan;98867.59;4993003;28;20443;-61
2022/04/18 04:54:34;;;;;;;5.33;3.20;;;;;;;2.55;nan;98867.78;4991034;28;20050;-60
2022/04/18 04:57:00;;;;;;;5.80;3.33;;;;;;;2.66;nan;98864.63;4992348;28;20041;-61
2022/04/18 04:59:25;;;;;;;7.27;3.80;;;;;;;2.68;nan;98845.25;4991819;28;20034;-61
2022/04/18 05:01:51;;;;;;;6.73;4.10;;;;;;;2.81;nan;98863.16;4990940;28;20516;-60
2022/04/18 05:04:16;;;;;;;3.53;2.93;;;;;;;2.84;nan;98845.50;4989945;28;20062;-61
2022/04/18 05:06:42;;;;;;;6.37;4.00;;;;;;;2.99;nan;98863.44;4990188;28;20549;-60
2022/04/18 05:09:08;;;;;;;6.33;4.60;;;;;;;3.01;nan;98849.13;4993304;28;20084;-60
2022/04/18 05:11:33;;;;;;;5.13;3.00;;;;;;;3.21;nan;98850.25;4990247;28;20098;-60
2022/04/18 05:13:59;;;;;;;4.17;3.03;;;;;;;3.29;nan;98847.81;4990049;28;20040;-60
2022/04/18 05:16:24;;;;;;;5.83;2.87;;;;;;;3.37;nan;98843.69;4989930;28;20037;-60
2022/04/18 05:18:50;;;;;;;4.27;3.10;;;;;;;3.38;nan;98841.19;4991561;28;20433;-60
2022/04/18 05:21:16;;;;;;;2.83;2.63;;;;;;;3.38;nan;98828.53;4990231;28;20381;-60
2022/04/18 05:23:42;;;;;;;6.70;3.60;;;;;;;3.55;nan;98843.94;4989820;28;20068;-61
2022/04/18 05:26:07;;;;;;;4.87;3.33;;;;;;;3.61;nan;98844.00;4990553;28;20148;-61
2022/04/18 05:28:32;;;;;;;3.93;3.10;;;;;;;3.61;nan;98834.69;4991059;28;20038;-60
2022/04/18 05:30:58;;;;;;;3.70;2.77;;;;;;;3.71;nan;98822.13;4990324;28;20116;-60
2022/04/18 05:33:24;;;;;;;5.13;3.83;;;;;;;3.81;nan;98829.88;4990142;28;20040;-60
2022/04/18 05:35:50;;;;;;;3.73;2.60;;;;;;;3.83;nan;98818.06;4990331;28;20034;-60
2022/04/18 05:38:16;;;;;;;5.43;3.47;;;;;;;4.06;nan;98826.75;4991724;28;20030;-60
2022/04/18 05:40:41;;;;;;;5.83;3.37;;;;;;;4.03;nan;98836.03;4988832;28;20030;-60
2022/04/18 05:43:08;;;;;;;4.27;2.97;;;;;;;4.11;nan;98832.72;4991029;28;20044;-60
2022/04/18 05:45:34;;;;;;;3.20;2.90;;;;;;;4.25;nan;98822.69;4992100;28;20084;-61
2022/04/18 05:48:00;;;;;;;4.60;3.40;;;;;;;4.41;nan;98828.78;4991620;28;20128;-61
2022/04/18 05:50:25;;;;;;;3.27;2.97;;;;;;;4.43;nan;98827.94;4993174;28;20766;-61
2022/04/18 05:52:52;;;;;;;3.97;3.03;;;;;;;4.58;nan;98822.97;4991447;28;20026;-60
2022/04/18 05:55:17;;;;;;;4.17;3.37;;;;;;;4.80;nan;98816.38;4992103;28;20033;-62
2022/04/18 05:57:43;;;;;;;3.73;2.83;;;;;;;5.04;nan;98820.75;4992686;28;20045;-60
2022/04/18 06:00:08;;;;;;;2.80;2.50;;;;;;;5.07;nan;98792.81;4990466;28;20400;-60
2022/04/18 06:02:34;;;;;;;4.73;2.67;;;;;;;5.36;nan;98819.22;4989893;28;20550;-60
2022/04/18 06:04:59;;;;;;;4.37;3.33;;;;;;;5.50;nan;98807.44;4991646;28;20030;-61
2022/04/18 06:07:25;;;;;;;8.30;5.53;;;;;;;5.64;nan;98807.50;4990263;28;20035;-60
2022/04/18 06:09:50;;;;;;;6.63;4.93;;;;;;;5.77;nan;98816.84;4989269;28;20483;-60
2022/04/18 06:12:22;;;;;;;4.90;3.00;;;;;;;5.82;nan;98812.63;4989569;28;20708;-61
2022/04/18 06:14:47;;;;;;;2.93;2.63;;;;;;;5.95;nan;98814.38;4991940;28;20042;-60
2022/04/18 06:17:13;;;;;;;3.47;2.40;;;;;;;5.94;nan;98801.69;4989185;28;20041;-60
2022/04/18 06:19:38;;;;;;;3.67;3.30;;;;;;;6.02;nan;98812.72;4987617;28;20096;-60
2022/04/18 06:22:04;;;;;;;2.93;2.30;;;;;;;6.02;nan;98814.41;4989850;28;20463;-61
2022/04/18 06:24:29;;;;;;;5.03;3.50;;;;;;;6.13;nan;98807.63;4991950;28;20058;-61
2022/04/18 06:26:55;;;;;;;4.20;3.57;;;;;;;6.07;nan;98811.00;4988487;28;20094;-59
2022/04/18 06:29:20;;;;;;;4.00;3.60;;;;;;;6.10;nan;98785.59;4988323;28;20034;-59
2022/04/18 06:31:46;;;;;;;6.37;2.80;;;;;;;6.19;nan;98788.13;4989569;28;20044;-60
2022/04/18 06:34:12;;;;;;;3.80;3.37;;;;;;;6.35;nan;98794.06;4990398;28;20721;-61
2022/04/18 06:36:38;;;;;;;3.53;2.67;;;;;;;6.27;nan;98794.09;4989371;28;20049;-60
2022/04/18 06:39:03;;;;;;;5.97;3.20;;;;;;;6.34;nan;98795.78;4988587;28;21005;-60
2022/04/18 06:41:29;;;;;;;6.33;3.70;;;;;;;6.37;nan;98788.13;4992638;28;20038;-60
2022/04/18 06:43:54;;;;;;;4.63;3.40;;;;;;;6.50;nan;98811.03;4991203;28;20037;-59
2022/04/18 06:46:20;;;;;;;3.47;3.17;;;;;;;6.55;nan;98817.84;4988440;28;20782;-60
2022/04/18 06:48:45;;;;;;;7.07;5.33;;;;;;;6.53;nan;98805.97;4987623;28;20041;-60
2022/04/18 06:51:11;;;;;;;5.57;3.43;;;;;;;6.68;nan;98824.63;4991435;28;20531;-60
2022/04/18 06:53:36;;;;;;;3.00;2.60;;;;;;;6.93;nan;98819.50;4990343;28;20034;-59
2022/04/18 06:58:46;;;;;;;3.93;3.33;;;;;;;7.13;nan;98808.41;4988510;28;20041;-59
2022/04/18 07:01:11;;;;;;;6.33;3.77;;;;;;;7.40;nan;98821.94;4990016;28;20990;-59
2022/04/18 07:03:37;;;;;;;5.43;3.47;;;;;;;7.58;nan;98822.75;4990930;28;20030;-59
2022/04/18 07:06:03;;;;;;;4.00;3.33;;;;;;;7.73;nan;98822.66;4987856;28;20042;-61
2022/04/18 07:08:28;;;;;;;4.90;3.43;;;;;;;7.92;nan;98833.63;4989896;28;20033;-60
2022/04/18 07:10:54;;;;;;;3.57;2.87;;;;;;;8.00;nan;98821.69;4998927;28;20278;-59
2022/04/18 07:13:19;;;;;;;3.50;3.20;;;;;;;7.98;nan;98799.53;4992202;28;20029;-59
2022/04/18 07:15:45;;;;;;;3.93;3.50;;;;;;;8.02;nan;98822.50;4989291;28;20057;-61
2022/04/18 07:18:10;;;;;;;3.87;3.50;;;;;;;7.97;nan;98803.84;4989357;28;20500;-60
2022/04/18 07:20:35;;;;;;;4.37;3.97;;;;;;;8.20;nan;98826.66;4989755;28;20756;-60
2022/04/18 07:23:02;;;;;;;6.13;3.83;;;;;;;8.31;nan;98804.50;4989094;28;20026;-60
2022/04/18 07:25:27;;;;;;;3.73;3.37;;;;;;;8.37;nan;98801.03;4986951;28;20500;-60
2022/04/18 07:27:53;;;;;;;4.60;3.10;;;;;;;8.44;nan;98812.91;4990928;28;20026;-60
2022/04/18 07:30:18;;;;;;;4.17;3.10;;;;;;;8.48;nan;98822.25;4990981;28;20476;-59
2022/04/18 07:32:44;;;;;;;3.20;2.90;;;;;;;8.54;nan;98822.19;4990081;28;20041;-60
2022/04/18 07:35:11;;;;;;;3.77;3.47;;;;;;;8.36;nan;98809.56;4989740;28;20029;-60
2022/04/18 07:37:37;;;;;;;3.90;3.50;;;;;;;8.62;nan;98813.59;4995149;28;20516;-60
2022/04/18 07:40:03;;;;;;;4.60;4.17;;;;;;;8.61;nan;98811.88;4994505;28;20037;-60
2022/04/18 07:42:30;;;;;;;14.20;7.60;;;;;;;8.51;nan;98801.78;4992732;28;20065;-60
2022/04/18 07:44:55;;;;;;;22.37;13.53;;;;;;;8.39;nan;98787.41;4991836;28;20038;-60
2022/04/18 07:47:21;;;;;;;4.33;3.93;;;;;;;8.38;nan;98798.47;4993578;28;20150;-60
2022/04/18 07:49:46;;;;;;;3.13;2.80;;;;;;;8.11;nan;98802.03;4994639;28;20121;-60
2022/04/18 07:52:12;;;;;;;3.60;2.53;;;;;;;7.88;nan;98790.25;4991334;28;20140;-59
2022/04/18 07:54:38;;;;;;;3.50;3.20;;;;;;;7.90;nan;98786.84;4992110;28;20671;-60
2022/04/18 07:57:05;;;;;;;3.60;3.30;;;;;;;7.76;nan;98780.97;4995017;28;20026;-60
2022/04/18 07:59:31;;;;;;;3.23;2.97;;;;;;;7.71;nan;98787.81;4993928;28;20129;-59
2022/04/18 08:01:56;;;;;;;2.90;2.70;;;;;;;7.79;nan;98780.97;4990145;28;20112;-59
2022/04/18 08:04:22;;;;;;;4.13;3.00;;;;;;;7.80;nan;98758.00;4999319;28;20095;-60
2022/04/18 08:06:47;;;;;;;3.67;2.93;;;;;;;7.86;nan;98790.25;4993243;28;20048;-60
2022/04/18 08:09:13;;;;;;;4.03;2.97;;;;;;;7.86;nan;98789.41;4992391;28;20030;-59
2022/04/18 08:11:38;;;;;;;5.00;3.07;;;;;;;7.75;nan;98769.91;4990518;28;20480;-60
2022/04/18 08:14:04;;;;;;;8.27;6.03;;;;;;;7.76;nan;98791.19;4994912;28;20472;-61
2022/04/18 08:16:29;;;;;;;4.77;3.37;;;;;;;7.98;nan;98779.97;4992854;28;20034;-60
2022/04/18 08:18:55;;;;;;;5.93;3.20;;;;;;;7.81;nan;98789.44;4993092;28;20034;-60
2022/04/18 08:21:20;;;;;;;3.50;3.13;;;;;;;7.81;nan;98777.53;4991763;28;20109;-60
2022/04/18 08:23:48;;;;;;;4.30;3.50;;;;;;;7.77;nan;98782.66;4991790;28;20037;-60
2022/04/18 08:26:13;;;;;;;5.53;4.20;;;;;;;7.66;nan;98784.44;4991394;28;20091;-61
2022/04/18 08:28:41;;;;;;;4.50;4.00;;;;;;;7.65;nan;98777.63;4992996;28;20038;-60
2022/04/18 08:31:07;;;;;;;3.93;3.10;;;;;;;7.64;nan;98789.53;4989671;28;20510;-60
2022/04/18 08:33:33;;;;;;;5.83;3.77;;;;;;;7.62;nan;98780.19;4990755;28;20172;-60
2022/04/18 08:35:59;;;;;;;4.37;2.93;;;;;;;7.55;nan;98774.28;4991050;28;20039;-60
2022/04/18 08:38:26;;;;;;;5.43;2.90;;;;;;;7.66;nan;98779.31;4987672;28;20041;-59
2022/04/18 08:40:55;;;;;;;4.67;4.23;;;;;;;7.71;nan;98785.25;4996671;28;20054;-59
2022/04/18 08:43:21;;;;;;;4.63;3.20;;;;;;;7.63;nan;98764.03;4991177;28;20480;-58
2022/04/18 08:45:47;;;;;;;5.27;3.23;;;;;;;7.66;nan;98784.44;4991261;28;20030;-61
2022/04/18 08:53:42;;;;;;;4.37;3.47;;;;;;;7.68;nan;98767.41;4992237;28;20555;-60
2022/04/18 08:56:08;;;;;;;5.33;4.60;;;;;;;7.73;nan;98770.78;4992749;28;20030;-60
2022/04/18 08:58:34;;;;;;;6.10;5.50;;;;;;;7.86;nan;98782.59;4990301;28;20496;-60
2022/04/18 09:01:02;;;;;;;6.53;4.43;;;;;;;7.95;nan;98792.78;4991284;28;20044;-60
2022/04/18 09:03:27;;;;;;;5.70;4.47;;;;;;;7.89;nan;98777.50;4990991;28;20158;-61
2022/04/18 09:06:10;;;;;;;7.07;4.43;;;;;;;8.00;nan;98788.50;4991331;28;20030;-61
2022/04/18 09:08:52;;;;;;;6.50;3.93;;;;;;;7.90;nan;98779.19;4990701;28;20544;-60
2022/04/18 09:11:30;;;;;;;4.07;3.60;;;;;;;7.86;nan;98791.97;4991052;28;20154;-59
2022/04/18 09:14:06;;;;;;;4.33;3.47;;;;;;;7.85;nan;98787.75;4993384;28;20034;-60
2022/04/18 09:16:32;;;;;;;4.17;3.63;;;;;;;7.90;nan;98791.94;4997997;28;20579;-59
2022/04/18 09:19:11;;;;;;;10.00;7.40;;;;;;;7.88;nan;98783.47;4991228;28;20034;-60
2022/04/18 09:21:54;;;;;;;7.57;6.37;;;;;;;7.79;nan;98776.69;4993529;28;20074;-60
2022/04/18 09:24:24;;;;;;;4.33;3.90;;;;;;;7.70;nan;98776.75;4989802;28;20107;-60
2022/04/18 09:26:50;;;;;;;3.90;3.50;;;;;;;7.74;nan;98775.88;4989602;28;20037;-59
2022/04/18 09:29:17;;;;;;;5.07;3.03;;;;;;;7.70;nan;98773.34;4990479;28;20080;-60
2022/04/18 09:31:43;;;;;;;3.30;2.90;;;;;;;7.54;nan;98772.59;4993096;28;20032;-58
2022/04/18 09:34:09;;;;;;;3.83;3.17;;;;;;;7.59;nan;98770.00;4989324;28;20473;-60
2022/04/18 09:36:34;;;;;;;6.77;3.60;;;;;;;7.48;nan;98764.94;4989602;28;20034;-59
2022/04/18 09:39:00;;;;;;;4.20;3.73;;;;;;;7.40;nan;98748.84;4991868;28;20547;-60
2022/04/18 09:41:31;;;;;;;4.07;2.90;;;;;;;7.53;nan;98767.47;4991293;28;20086;-59
2022/04/18 09:43:58;;;;;;;3.90;3.27;;;;;;;7.33;nan;98773.53;4990389;28;20034;-58
2022/04/18 09:46:24;;;;;;;6.70;3.40;;;;;;;7.35;nan;98773.50;4987751;28;20065;-58
2022/04/18 09:48:50;;;;;;;4.33;3.00;;;;;;;7.29;nan;98769.28;4990938;28;20568;-57
2022/04/18 09:51:38;;;;;;;4.37;3.43;;;;;;;7.33;nan;98782.88;4991793;28;20037;-60
2022/04/18 09:54:05;;;;;;;5.00;3.40;;;;;;;7.18;nan;98765.06;4989190;28;20754;-58
2022/04/18 09:56:31;;;;;;;6.43;3.73;;;;;;;7.10;nan;98777.00;4996609;28;20030;-60
2022/04/18 09:58:58;;;;;;;5.70;3.00;;;;;;;7.00;nan;98776.16;4991632;28;20034;-60
2022/04/18 10:01:24;;;;;;;4.77;3.77;;;;;;;6.72;nan;98767.72;4989897;28;20427;-61
2022/04/18 10:03:52;;;;;;;5.10;3.20;;;;;;;6.57;nan;98772.88;4987756;28;20568;-61
2022/04/18 10:06:19;;;;;;;5.40;3.60;;;;;;;6.64;nan;98778.78;4989240;28;20032;-61
2022/04/18 10:08:45;;;;;;;5.20;3.83;;;;;;;6.52;nan;98788.97;4991905;28;20611;-60
2022/04/18 10:11:13;;;;;;;8.50;3.50;;;;;;;6.28;nan;98785.56;4991358;28;20046;-59
2022/04/18 10:13:39;;;;;;;4.00;3.60;;;;;;;6.07;nan;98767.75;4990451;28;20092;-61
2022/04/18 10:16:06;;;;;;;3.43;3.10;;;;;;;6.03;nan;98771.13;4990453;28;20042;-59
2022/04/18 10:18:46;;;;;;;6.17;3.60;;;;;;;6.30;nan;98772.84;4991475;28;20156;-60
2022/04/18 10:21:24;;;;;;;3.53;3.00;;;;;;;6.36;nan;98773.72;4989972;28;20080;-57
2022/04/18 10:23:52;;;;;;;6.00;3.13;;;;;;;6.47;nan;98772.84;4988395;28;20096;-59
2022/04/18 10:27:03;;;;;;;4.50;3.90;;;;;;;6.44;nan;98758.44;4991236;28;20030;-60
2022/04/18 10:29:36;;;;;;;6.80;3.63;;;;;;;6.62;nan;98763.50;4988182;28;20050;-58
2022/04/18 10:32:04;;;;;;;3.80;3.50;;;;;;;6.55;nan;98758.41;4989687;28;20069;-59
2022/04/18 10:34:33;;;;;;;4.70;3.47;;;;;;;6.53;nan;98747.41;4974499;28;20053;-61
2022/04/18 10:37:03;;;;;;;6.67;3.63;;;;;;;6.62;nan;98744.84;4992779;28;20111;-59
2022/04/18 10:39:34;;;;;;;4.60;3.67;;;;;;;6.81;nan;98751.59;4991881;28;20062;-60
2022/04/18 10:42:24;;;;;;;5.30;4.10;;;;;;;6.65;nan;98735.50;4989890;28;20136;-60
2022/04/18 10:45:19;;;;;;;4.20;3.47;;;;;;;6.78;nan;98749.06;4992963;28;20093;-60
2022/04/18 10:48:00;;;;;;;4.67;3.50;;;;;;;6.70;nan;98751.63;4992429;28;20468;-60
2022/04/18 10:50:47;;;;;;;5.40;3.57;;;;;;;6.81;nan;98754.13;4989643;28;20653;-59
2022/04/18 10:53:39;;;;;;;3.63;3.13;;;;;;;6.73;nan;98753.31;4989958;28;20504;-59
2022/04/18 10:56:09;;;;;;;5.73;3.60;;;;;;;6.48;nan;98738.91;4991793;28;20043;-60
2022/04/18 10:58:35;;;;;;;3.53;3.23;;;;;;;6.54;nan;98749.91;4992428;28;20034;-65
2022/04/18 11:01:07;;;;;;;4.87;3.57;;;;;;;6.64;nan;98759.25;4989691;28;20039;-59
2022/04/18 11:03:57;;;;;;;3.57;3.27;;;;;;;6.56;nan;98747.38;4990641;28;20042;-61
2022/04/18 11:06:23;;;;;;;7.17;3.47;;;;;;;6.65;nan;98755.00;4991585;28;20145;-62
2022/04/18 11:09:01;;;;;;;6.43;3.60;;;;;;;6.64;nan;98743.13;4991173;28;20039;-59
2022/04/18 11:11:47;;;;;;;4.60;3.67;;;;;;;6.69;nan;98746.50;4991575;28;20030;-59
2022/04/18 11:14:20;;;;;;;5.07;3.55;;;;;;;6.57;nan;98749.09;4997434;28;20030;-60
2022/04/18 11:16:46;;;;;;;5.20;3.77;;;;;;;6.64;nan;98746.53;4994830;28;20540;-56
2022/04/18 11:19:14;;;;;;;6.07;4.60;;;;;;;6.86;nan;98747.31;4995651;28;20031;-58
2022/04/18 11:21:59;;;;;;;6.13;4.30;;;;;;;6.78;nan;98742.25;4993800;28;20049;-61
2022/04/18 11:24:55;;;;;;;4.15;3.53;;;;;;;6.52;nan;98751.63;4996914;28;20080;-60
2022/04/18 11:27:31;;;;;;;4.35;3.50;;;;;;;6.45;nan;98751.66;4991752;28;20049;-60
2022/04/18 11:30:03;;;;;;;4.97;4.00;;;;;;;6.50;nan;98744.81;4992208;28;20112;-60
2022/04/18 11:32:34;;;;;;;4.77;4.33;;;;;;;6.32;nan;98738.91;5003045;28;20086;-61
2022/04/18 11:35:01;;;;;;;6.50;4.07;;;;;;;6.56;nan;98722.75;4993396;28;20088;-61
2022/04/18 11:37:33;;;;;;;6.47;4.20;;;;;;;6.41;nan;98738.91;4992686;28;20501;-61
2022/04/18 11:40:00;;;;;;;4.23;3.77;;;;;;;6.18;nan;98721.94;4993736;28;20076;-60
2022/04/18 11:42:29;;;;;;;6.47;3.73;;;;;;;6.29;nan;98718.53;4995142;28;20120;-60
2022/04/18 11:45:00;;;;;;;4.90;3.90;;;;;;;6.29;nan;98726.19;4995244;28;20030;-61
2022/04/18 11:47:29;;;;;;;5.10;4.27;;;;;;;6.27;nan;98717.72;4991846;28;20464;-60
2022/04/18 11:50:00;;;;;;;6.07;4.07;;;;;;;6.34;nan;98718.53;4992669;28;20484;-62
2022/04/18 11:52:31;;;;;;;5.10;4.60;;;;;;;6.43;nan;98709.19;4994786;28;20029;-61
2022/04/18 11:55:13;;;;;;;5.30;4.70;;;;;;;6.73;nan;98704.91;4991996;28;20459;-60
2022/04/18 11:57:44;;;;;;;5.40;4.87;;;;;;;6.88;nan;98689.53;4991177;28;20060;-60
2022/04/18 12:06:44;;;;;;;5.37;3.80;;;;;;;7.06;nan;98691.19;4993894;28;20040;-61
2022/04/18 12:08:37;;;;;;;4.13;3.78;;;;;;;7.90;nan;98669.41;4990993;28;20077;-61
2022/04/18 12:11:02;;;;;;;4.87;3.93;;;;;;;8.09;nan;98668.44;4993063;28;20137;-60
2022/04/18 12:13:28;;;;;;;5.77;4.33;;;;;;;8.00;nan;98668.50;4993508;28;20031;-61
2022/04/18 12:15:53;;;;;;;5.63;4.10;;;;;;;7.92;nan;98657.50;4991182;28;20031;-60
2022/04/18 12:18:20;;;;;;;3.60;3.30;;;;;;;7.80;nan;98647.41;4991969;28;20081;-60
2022/04/18 12:20:47;;;;;;;6.73;3.27;;;;;;;7.88;nan;98657.53;4992804;28;20030;-60
2022/04/18 12:23:24;;;;;;;6.87;3.53;;;;;;;7.92;nan;98646.44;4992980;28;20116;-60